<?xml version="1.0" encoding="UTF-8" standalone="no" ?>
<gpx xmlns="http://www.topografix.com/GPX/1/1" xmlns:xsi="http://www.w3.org/2001/XMLSchema-instance" xsi:schemaLocation="http://www.topografix.com/GPX/1/1 http://www.topografix.com/GPX/1/1/gpx.xsd" version="1.1" creator="VisuGPX - https://www.visugpx.com">
  <metadata>
    <name>Promenade au fil de l'Yonne à partir de Migennes</name>
    <desc><![CDATA[prépa séjour]]></desc>
  </metadata>
  <wpt lat="47.96218" lon="3.51324">
    <ele>83</ele>
    <name><![CDATA[Office de Tourisme]]></name>
  </wpt>
  <wpt lat="47.9583" lon="3.51655">
    <ele>80</ele>
    <name><![CDATA[Sentier goudronné à gauche]]></name>
  </wpt>
  <wpt lat="47.94606" lon="3.52294">
    <ele>83</ele>
    <name><![CDATA[Virer à droite]]></name>
  </wpt>
  <wpt lat="47.93895" lon="3.51558">
    <ele>79</ele>
    <name><![CDATA[Pont sur la rivière]]></name>
  </wpt>
  <wpt lat="47.92753" lon="3.52001">
    <ele>82</ele>
    <name><![CDATA[Attention, garder le trottoir de droite]]></name>
  </wpt>
  <wpt lat="47.92849" lon="3.51508">
    <ele>83</ele>
    <name><![CDATA[Rive gauche]]></name>
  </wpt>
  <wpt lat="47.94878" lon="3.50427">
    <ele>79</ele>
    <name><![CDATA[Écluse de la Gravière]]></name>
  </wpt>
  <wpt lat="47.95628" lon="3.50003">
    <ele>78</ele>
    <name><![CDATA[À gauche en arrivant sur la route]]></name>
  </wpt>
  <wpt lat="47.95927" lon="3.50489">
    <ele>82</ele>
    <name><![CDATA[À gauche, route et passage sous la voie ferrée]]></name>
  </wpt>
  <wpt lat="47.96133" lon="3.50462">
    <ele>81</ele>
    <name><![CDATA[À droite, longer le port et le canal]]></name>
  </wpt>
  <wpt lat="47.96218" lon="3.51323">
    <ele>83</ele>
    <name><![CDATA[Office de tourisme]]></name>
  </wpt>
  <trk>
    <name><![CDATA[Promenade au fil de l'Yonne à partir de Migennes]]></name>
    <trkseg>
      <trkpt lat="47.96218" lon="3.51324">
        <ele>83</ele>
        <time>2019-12-24T15:30:59+01:00</time>
      </trkpt>
      <trkpt lat="47.96188" lon="3.51326">
        <ele>84</ele>
        <time>2019-12-24T15:31:04+01:00</time>
      </trkpt>
      <trkpt lat="47.96146" lon="3.51331">
        <ele>84</ele>
        <time>2019-12-24T15:31:09+01:00</time>
      </trkpt>
      <trkpt lat="47.96066" lon="3.51309">
        <ele>83</ele>
        <time>2019-12-24T15:31:14+01:00</time>
      </trkpt>
      <trkpt lat="47.96057" lon="3.51317">
        <ele>82</ele>
        <time>2019-12-24T15:31:19+01:00</time>
      </trkpt>
      <trkpt lat="47.96048" lon="3.51335">
        <ele>82</ele>
        <time>2019-12-24T15:31:24+01:00</time>
      </trkpt>
      <trkpt lat="47.96006" lon="3.51302">
        <ele>81</ele>
        <time>2019-12-24T15:31:29+01:00</time>
      </trkpt>
      <trkpt lat="47.95989" lon="3.51349">
        <ele>80</ele>
        <time>2019-12-24T15:31:34+01:00</time>
      </trkpt>
      <trkpt lat="47.95879" lon="3.51637">
        <ele>81</ele>
        <time>2019-12-24T15:31:39+01:00</time>
      </trkpt>
      <trkpt lat="47.95847" lon="3.51644">
        <ele>80</ele>
        <time>2019-12-24T15:31:44+01:00</time>
      </trkpt>
      <trkpt lat="47.9583" lon="3.51655">
        <ele>80</ele>
        <time>2019-12-24T15:31:49+01:00</time>
      </trkpt>
      <trkpt lat="47.95819" lon="3.51671">
        <ele>80</ele>
        <time>2019-12-24T15:31:54+01:00</time>
      </trkpt>
      <trkpt lat="47.95818" lon="3.51711">
        <ele>81</ele>
        <time>2019-12-24T15:31:59+01:00</time>
      </trkpt>
      <trkpt lat="47.95812" lon="3.5173">
        <ele>81</ele>
        <time>2019-12-24T15:32:04+01:00</time>
      </trkpt>
      <trkpt lat="47.95788" lon="3.51749">
        <ele>80</ele>
        <time>2019-12-24T15:32:09+01:00</time>
      </trkpt>
      <trkpt lat="47.95715" lon="3.51798">
        <ele>80</ele>
        <time>2019-12-24T15:32:14+01:00</time>
      </trkpt>
      <trkpt lat="47.95468" lon="3.51972">
        <ele>82</ele>
        <time>2019-12-24T15:32:19+01:00</time>
      </trkpt>
      <trkpt lat="47.95259" lon="3.52112">
        <ele>81</ele>
        <time>2019-12-24T15:32:24+01:00</time>
      </trkpt>
      <trkpt lat="47.95184" lon="3.52166">
        <ele>82</ele>
        <time>2019-12-24T15:32:29+01:00</time>
      </trkpt>
      <trkpt lat="47.95033" lon="3.5227">
        <ele>85</ele>
        <time>2019-12-24T15:32:34+01:00</time>
      </trkpt>
      <trkpt lat="47.94903" lon="3.52192">
        <ele>83</ele>
        <time>2019-12-24T15:32:39+01:00</time>
      </trkpt>
      <trkpt lat="47.94835" lon="3.52161">
        <ele>82</ele>
        <time>2019-12-24T15:32:44+01:00</time>
      </trkpt>
      <trkpt lat="47.94806" lon="3.52157">
        <ele>82</ele>
        <time>2019-12-24T15:32:49+01:00</time>
      </trkpt>
      <trkpt lat="47.94771" lon="3.52163">
        <ele>82</ele>
        <time>2019-12-24T15:32:54+01:00</time>
      </trkpt>
      <trkpt lat="47.94667" lon="3.52261">
        <ele>85</ele>
        <time>2019-12-24T15:32:59+01:00</time>
      </trkpt>
      <trkpt lat="47.94606" lon="3.52294">
        <ele>83</ele>
        <time>2019-12-24T15:33:04+01:00</time>
      </trkpt>
      <trkpt lat="47.94519" lon="3.5228">
        <ele>81</ele>
        <time>2019-12-24T15:33:09+01:00</time>
      </trkpt>
      <trkpt lat="47.94477" lon="3.52258">
        <ele>81</ele>
        <time>2019-12-24T15:33:14+01:00</time>
      </trkpt>
      <trkpt lat="47.9441" lon="3.52218">
        <ele>84</ele>
        <time>2019-12-24T15:33:19+01:00</time>
      </trkpt>
      <trkpt lat="47.94388" lon="3.52197">
        <ele>83</ele>
        <time>2019-12-24T15:33:24+01:00</time>
      </trkpt>
      <trkpt lat="47.94364" lon="3.52167">
        <ele>83</ele>
        <time>2019-12-24T15:33:29+01:00</time>
      </trkpt>
      <trkpt lat="47.94354" lon="3.52144">
        <ele>83</ele>
        <time>2019-12-24T15:33:34+01:00</time>
      </trkpt>
      <trkpt lat="47.94336" lon="3.52094">
        <ele>83</ele>
        <time>2019-12-24T15:33:39+01:00</time>
      </trkpt>
      <trkpt lat="47.94327" lon="3.52071">
        <ele>83</ele>
        <time>2019-12-24T15:33:44+01:00</time>
      </trkpt>
      <trkpt lat="47.9432" lon="3.51979">
        <ele>85</ele>
        <time>2019-12-24T15:33:49+01:00</time>
      </trkpt>
      <trkpt lat="47.94306" lon="3.5187">
        <ele>81</ele>
        <time>2019-12-24T15:33:54+01:00</time>
      </trkpt>
      <trkpt lat="47.94298" lon="3.51856">
        <ele>81</ele>
        <time>2019-12-24T15:33:59+01:00</time>
      </trkpt>
      <trkpt lat="47.94275" lon="3.51833">
        <ele>80</ele>
        <time>2019-12-24T15:34:04+01:00</time>
      </trkpt>
      <trkpt lat="47.94255" lon="3.51807">
        <ele>80</ele>
        <time>2019-12-24T15:34:09+01:00</time>
      </trkpt>
      <trkpt lat="47.94225" lon="3.51764">
        <ele>80</ele>
        <time>2019-12-24T15:34:14+01:00</time>
      </trkpt>
      <trkpt lat="47.94179" lon="3.51683">
        <ele>81</ele>
        <time>2019-12-24T15:34:19+01:00</time>
      </trkpt>
      <trkpt lat="47.94142" lon="3.5162">
        <ele>81</ele>
        <time>2019-12-24T15:34:24+01:00</time>
      </trkpt>
      <trkpt lat="47.94119" lon="3.51614">
        <ele>81</ele>
        <time>2019-12-24T15:34:29+01:00</time>
      </trkpt>
      <trkpt lat="47.94078" lon="3.51614">
        <ele>81</ele>
        <time>2019-12-24T15:34:34+01:00</time>
      </trkpt>
      <trkpt lat="47.94032" lon="3.51607">
        <ele>81</ele>
        <time>2019-12-24T15:34:39+01:00</time>
      </trkpt>
      <trkpt lat="47.94001" lon="3.51599">
        <ele>80</ele>
        <time>2019-12-24T15:34:44+01:00</time>
      </trkpt>
      <trkpt lat="47.93932" lon="3.5157">
        <ele>78</ele>
        <time>2019-12-24T15:34:49+01:00</time>
      </trkpt>
      <trkpt lat="47.93895" lon="3.51558">
        <ele>79</ele>
        <time>2019-12-24T15:34:54+01:00</time>
      </trkpt>
      <trkpt lat="47.93843" lon="3.51567">
        <ele>79</ele>
        <time>2019-12-24T15:34:59+01:00</time>
      </trkpt>
      <trkpt lat="47.93763" lon="3.51602">
        <ele>80</ele>
        <time>2019-12-24T15:35:04+01:00</time>
      </trkpt>
      <trkpt lat="47.93659" lon="3.51655">
        <ele>81</ele>
        <time>2019-12-24T15:35:09+01:00</time>
      </trkpt>
      <trkpt lat="47.93576" lon="3.51694">
        <ele>80</ele>
        <time>2019-12-24T15:35:14+01:00</time>
      </trkpt>
      <trkpt lat="47.93521" lon="3.51709">
        <ele>81</ele>
        <time>2019-12-24T15:35:19+01:00</time>
      </trkpt>
      <trkpt lat="47.93475" lon="3.51722">
        <ele>81</ele>
        <time>2019-12-24T15:35:24+01:00</time>
      </trkpt>
      <trkpt lat="47.93443" lon="3.51737">
        <ele>80</ele>
        <time>2019-12-24T15:35:29+01:00</time>
      </trkpt>
      <trkpt lat="47.93355" lon="3.5182">
        <ele>81</ele>
        <time>2019-12-24T15:35:34+01:00</time>
      </trkpt>
      <trkpt lat="47.93263" lon="3.5191">
        <ele>80</ele>
        <time>2019-12-24T15:35:39+01:00</time>
      </trkpt>
      <trkpt lat="47.93238" lon="3.51908">
        <ele>80</ele>
        <time>2019-12-24T15:35:44+01:00</time>
      </trkpt>
      <trkpt lat="47.93213" lon="3.51889">
        <ele>79</ele>
        <time>2019-12-24T15:35:49+01:00</time>
      </trkpt>
      <trkpt lat="47.93172" lon="3.51891">
        <ele>78</ele>
        <time>2019-12-24T15:35:54+01:00</time>
      </trkpt>
      <trkpt lat="47.93133" lon="3.51883">
        <ele>79</ele>
        <time>2019-12-24T15:35:59+01:00</time>
      </trkpt>
      <trkpt lat="47.93106" lon="3.51883">
        <ele>79</ele>
        <time>2019-12-24T15:36:04+01:00</time>
      </trkpt>
      <trkpt lat="47.93084" lon="3.519">
        <ele>79</ele>
        <time>2019-12-24T15:36:09+01:00</time>
      </trkpt>
      <trkpt lat="47.93051" lon="3.51945">
        <ele>80</ele>
        <time>2019-12-24T15:36:14+01:00</time>
      </trkpt>
      <trkpt lat="47.93029" lon="3.51957">
        <ele>80</ele>
        <time>2019-12-24T15:36:19+01:00</time>
      </trkpt>
      <trkpt lat="47.9301" lon="3.51948">
        <ele>80</ele>
        <time>2019-12-24T15:36:24+01:00</time>
      </trkpt>
      <trkpt lat="47.92956" lon="3.51911">
        <ele>81</ele>
        <time>2019-12-24T15:36:29+01:00</time>
      </trkpt>
      <trkpt lat="47.92887" lon="3.51904">
        <ele>81</ele>
        <time>2019-12-24T15:36:34+01:00</time>
      </trkpt>
      <trkpt lat="47.92853" lon="3.51904">
        <ele>80</ele>
        <time>2019-12-24T15:36:39+01:00</time>
      </trkpt>
      <trkpt lat="47.92799" lon="3.51944">
        <ele>80</ele>
        <time>2019-12-24T15:36:44+01:00</time>
      </trkpt>
      <trkpt lat="47.92753" lon="3.52001">
        <ele>82</ele>
        <time>2019-12-24T15:36:49+01:00</time>
      </trkpt>
      <trkpt lat="47.92688" lon="3.51934">
        <ele>80</ele>
        <time>2019-12-24T15:36:54+01:00</time>
      </trkpt>
      <trkpt lat="47.9263" lon="3.51871">
        <ele>80</ele>
        <time>2019-12-24T15:36:59+01:00</time>
      </trkpt>
      <trkpt lat="47.92557" lon="3.51792">
        <ele>81</ele>
        <time>2019-12-24T15:37:04+01:00</time>
      </trkpt>
      <trkpt lat="47.9252" lon="3.51731">
        <ele>82</ele>
        <time>2019-12-24T15:37:09+01:00</time>
      </trkpt>
      <trkpt lat="47.92528" lon="3.51711">
        <ele>82</ele>
        <time>2019-12-24T15:37:14+01:00</time>
      </trkpt>
      <trkpt lat="47.92584" lon="3.51587">
        <ele>81</ele>
        <time>2019-12-24T15:37:19+01:00</time>
      </trkpt>
      <trkpt lat="47.92594" lon="3.51565">
        <ele>81</ele>
        <time>2019-12-24T15:37:24+01:00</time>
      </trkpt>
      <trkpt lat="47.92645" lon="3.5153">
        <ele>80</ele>
        <time>2019-12-24T15:37:29+01:00</time>
      </trkpt>
      <trkpt lat="47.92704" lon="3.515">
        <ele>80</ele>
        <time>2019-12-24T15:37:34+01:00</time>
      </trkpt>
      <trkpt lat="47.92786" lon="3.51511">
        <ele>82</ele>
        <time>2019-12-24T15:37:39+01:00</time>
      </trkpt>
      <trkpt lat="47.92801" lon="3.51507">
        <ele>82</ele>
        <time>2019-12-24T15:37:44+01:00</time>
      </trkpt>
      <trkpt lat="47.92825" lon="3.51506">
        <ele>83</ele>
        <time>2019-12-24T15:37:49+01:00</time>
      </trkpt>
      <trkpt lat="47.92849" lon="3.51508">
        <ele>83</ele>
        <time>2019-12-24T15:37:54+01:00</time>
      </trkpt>
      <trkpt lat="47.92891" lon="3.51496">
        <ele>84</ele>
        <time>2019-12-24T15:37:59+01:00</time>
      </trkpt>
      <trkpt lat="47.92939" lon="3.5149">
        <ele>83</ele>
        <time>2019-12-24T15:38:04+01:00</time>
      </trkpt>
      <trkpt lat="47.93006" lon="3.51507">
        <ele>80</ele>
        <time>2019-12-24T15:38:09+01:00</time>
      </trkpt>
      <trkpt lat="47.93041" lon="3.51522">
        <ele>81</ele>
        <time>2019-12-24T15:38:14+01:00</time>
      </trkpt>
      <trkpt lat="47.93071" lon="3.51541">
        <ele>81</ele>
        <time>2019-12-24T15:38:19+01:00</time>
      </trkpt>
      <trkpt lat="47.93132" lon="3.51585">
        <ele>80</ele>
        <time>2019-12-24T15:38:24+01:00</time>
      </trkpt>
      <trkpt lat="47.93181" lon="3.51594">
        <ele>79</ele>
        <time>2019-12-24T15:38:29+01:00</time>
      </trkpt>
      <trkpt lat="47.93248" lon="3.51582">
        <ele>78</ele>
        <time>2019-12-24T15:38:34+01:00</time>
      </trkpt>
      <trkpt lat="47.93295" lon="3.51567">
        <ele>81</ele>
        <time>2019-12-24T15:38:39+01:00</time>
      </trkpt>
      <trkpt lat="47.93405" lon="3.51503">
        <ele>81</ele>
        <time>2019-12-24T15:38:44+01:00</time>
      </trkpt>
      <trkpt lat="47.93512" lon="3.51434">
        <ele>78</ele>
        <time>2019-12-24T15:38:49+01:00</time>
      </trkpt>
      <trkpt lat="47.93576" lon="3.51408">
        <ele>80</ele>
        <time>2019-12-24T15:38:54+01:00</time>
      </trkpt>
      <trkpt lat="47.93639" lon="3.51391">
        <ele>83</ele>
        <time>2019-12-24T15:38:59+01:00</time>
      </trkpt>
      <trkpt lat="47.93672" lon="3.51387">
        <ele>84</ele>
        <time>2019-12-24T15:39:04+01:00</time>
      </trkpt>
      <trkpt lat="47.93701" lon="3.51391">
        <ele>83</ele>
        <time>2019-12-24T15:39:09+01:00</time>
      </trkpt>
      <trkpt lat="47.93781" lon="3.514">
        <ele>81</ele>
        <time>2019-12-24T15:39:14+01:00</time>
      </trkpt>
      <trkpt lat="47.93893" lon="3.51383">
        <ele>80</ele>
        <time>2019-12-24T15:39:19+01:00</time>
      </trkpt>
      <trkpt lat="47.93955" lon="3.51358">
        <ele>80</ele>
        <time>2019-12-24T15:39:24+01:00</time>
      </trkpt>
      <trkpt lat="47.94028" lon="3.51319">
        <ele>82</ele>
        <time>2019-12-24T15:39:29+01:00</time>
      </trkpt>
      <trkpt lat="47.94068" lon="3.51292">
        <ele>83</ele>
        <time>2019-12-24T15:39:34+01:00</time>
      </trkpt>
      <trkpt lat="47.94107" lon="3.51237">
        <ele>83</ele>
        <time>2019-12-24T15:39:39+01:00</time>
      </trkpt>
      <trkpt lat="47.94119" lon="3.51212">
        <ele>83</ele>
        <time>2019-12-24T15:39:44+01:00</time>
      </trkpt>
      <trkpt lat="47.94123" lon="3.51171">
        <ele>84</ele>
        <time>2019-12-24T15:39:49+01:00</time>
      </trkpt>
      <trkpt lat="47.94123" lon="3.51079">
        <ele>85</ele>
        <time>2019-12-24T15:39:54+01:00</time>
      </trkpt>
      <trkpt lat="47.94122" lon="3.51019">
        <ele>85</ele>
        <time>2019-12-24T15:39:59+01:00</time>
      </trkpt>
      <trkpt lat="47.94125" lon="3.50982">
        <ele>84</ele>
        <time>2019-12-24T15:40:04+01:00</time>
      </trkpt>
      <trkpt lat="47.94137" lon="3.50928">
        <ele>83</ele>
        <time>2019-12-24T15:40:09+01:00</time>
      </trkpt>
      <trkpt lat="47.94167" lon="3.5085">
        <ele>80</ele>
        <time>2019-12-24T15:40:14+01:00</time>
      </trkpt>
      <trkpt lat="47.94191" lon="3.5081">
        <ele>79</ele>
        <time>2019-12-24T15:40:19+01:00</time>
      </trkpt>
      <trkpt lat="47.94251" lon="3.507">
        <ele>79</ele>
        <time>2019-12-24T15:40:24+01:00</time>
      </trkpt>
      <trkpt lat="47.94322" lon="3.5057">
        <ele>82</ele>
        <time>2019-12-24T15:40:29+01:00</time>
      </trkpt>
      <trkpt lat="47.94352" lon="3.50521">
        <ele>85</ele>
        <time>2019-12-24T15:40:34+01:00</time>
      </trkpt>
      <trkpt lat="47.94378" lon="3.50485">
        <ele>85</ele>
        <time>2019-12-24T15:40:39+01:00</time>
      </trkpt>
      <trkpt lat="47.94415" lon="3.50441">
        <ele>86</ele>
        <time>2019-12-24T15:40:44+01:00</time>
      </trkpt>
      <trkpt lat="47.94458" lon="3.50402">
        <ele>85</ele>
        <time>2019-12-24T15:40:49+01:00</time>
      </trkpt>
      <trkpt lat="47.94537" lon="3.50355">
        <ele>85</ele>
        <time>2019-12-24T15:40:54+01:00</time>
      </trkpt>
      <trkpt lat="47.94597" lon="3.50327">
        <ele>84</ele>
        <time>2019-12-24T15:40:59+01:00</time>
      </trkpt>
      <trkpt lat="47.94628" lon="3.50315">
        <ele>83</ele>
        <time>2019-12-24T15:41:04+01:00</time>
      </trkpt>
      <trkpt lat="47.94689" lon="3.50305">
        <ele>82</ele>
        <time>2019-12-24T15:41:09+01:00</time>
      </trkpt>
      <trkpt lat="47.94722" lon="3.50307">
        <ele>81</ele>
        <time>2019-12-24T15:41:14+01:00</time>
      </trkpt>
      <trkpt lat="47.94757" lon="3.50317">
        <ele>80</ele>
        <time>2019-12-24T15:41:19+01:00</time>
      </trkpt>
      <trkpt lat="47.94778" lon="3.5033">
        <ele>80</ele>
        <time>2019-12-24T15:41:24+01:00</time>
      </trkpt>
      <trkpt lat="47.94806" lon="3.50354">
        <ele>80</ele>
        <time>2019-12-24T15:41:29+01:00</time>
      </trkpt>
      <trkpt lat="47.94878" lon="3.50427">
        <ele>79</ele>
        <time>2019-12-24T15:41:34+01:00</time>
      </trkpt>
      <trkpt lat="47.94928" lon="3.50489">
        <ele>79</ele>
        <time>2019-12-24T15:41:39+01:00</time>
      </trkpt>
      <trkpt lat="47.94977" lon="3.50544">
        <ele>79</ele>
        <time>2019-12-24T15:41:44+01:00</time>
      </trkpt>
      <trkpt lat="47.95062" lon="3.50645">
        <ele>76</ele>
        <time>2019-12-24T15:41:49+01:00</time>
      </trkpt>
      <trkpt lat="47.95132" lon="3.50695">
        <ele>77</ele>
        <time>2019-12-24T15:41:54+01:00</time>
      </trkpt>
      <trkpt lat="47.95247" lon="3.50702">
        <ele>77</ele>
        <time>2019-12-24T15:41:59+01:00</time>
      </trkpt>
      <trkpt lat="47.95324" lon="3.50648">
        <ele>76</ele>
        <time>2019-12-24T15:42:04+01:00</time>
      </trkpt>
      <trkpt lat="47.95421" lon="3.50532">
        <ele>80</ele>
        <time>2019-12-24T15:42:09+01:00</time>
      </trkpt>
      <trkpt lat="47.95441" lon="3.5039">
        <ele>80</ele>
        <time>2019-12-24T15:42:14+01:00</time>
      </trkpt>
      <trkpt lat="47.95435" lon="3.50242">
        <ele>78</ele>
        <time>2019-12-24T15:42:19+01:00</time>
      </trkpt>
      <trkpt lat="47.95438" lon="3.50214">
        <ele>78</ele>
        <time>2019-12-24T15:42:24+01:00</time>
      </trkpt>
      <trkpt lat="47.95472" lon="3.5015">
        <ele>77</ele>
        <time>2019-12-24T15:42:29+01:00</time>
      </trkpt>
      <trkpt lat="47.95504" lon="3.50112">
        <ele>78</ele>
        <time>2019-12-24T15:42:34+01:00</time>
      </trkpt>
      <trkpt lat="47.95538" lon="3.50096">
        <ele>79</ele>
        <time>2019-12-24T15:42:39+01:00</time>
      </trkpt>
      <trkpt lat="47.95573" lon="3.50088">
        <ele>80</ele>
        <time>2019-12-24T15:42:44+01:00</time>
      </trkpt>
      <trkpt lat="47.95605" lon="3.50082">
        <ele>79</ele>
        <time>2019-12-24T15:42:49+01:00</time>
      </trkpt>
      <trkpt lat="47.95635" lon="3.50081">
        <ele>78</ele>
        <time>2019-12-24T15:42:54+01:00</time>
      </trkpt>
      <trkpt lat="47.95664" lon="3.50081">
        <ele>77</ele>
        <time>2019-12-24T15:42:59+01:00</time>
      </trkpt>
      <trkpt lat="47.95658" lon="3.50045">
        <ele>78</ele>
        <time>2019-12-24T15:43:04+01:00</time>
      </trkpt>
      <trkpt lat="47.9565" lon="3.50024">
        <ele>78</ele>
        <time>2019-12-24T15:43:09+01:00</time>
      </trkpt>
      <trkpt lat="47.95641" lon="3.50009">
        <ele>78</ele>
        <time>2019-12-24T15:43:14+01:00</time>
      </trkpt>
      <trkpt lat="47.95628" lon="3.50003">
        <ele>78</ele>
        <time>2019-12-24T15:43:19+01:00</time>
      </trkpt>
      <trkpt lat="47.9564" lon="3.50025">
        <ele>78</ele>
        <time>2019-12-24T15:43:24+01:00</time>
      </trkpt>
      <trkpt lat="47.95648" lon="3.50045">
        <ele>78</ele>
        <time>2019-12-24T15:43:29+01:00</time>
      </trkpt>
      <trkpt lat="47.95655" lon="3.50114">
        <ele>78</ele>
        <time>2019-12-24T15:43:34+01:00</time>
      </trkpt>
      <trkpt lat="47.95658" lon="3.50191">
        <ele>78</ele>
        <time>2019-12-24T15:43:39+01:00</time>
      </trkpt>
      <trkpt lat="47.9566" lon="3.50224">
        <ele>79</ele>
        <time>2019-12-24T15:43:44+01:00</time>
      </trkpt>
      <trkpt lat="47.95666" lon="3.50264">
        <ele>80</ele>
        <time>2019-12-24T15:43:49+01:00</time>
      </trkpt>
      <trkpt lat="47.95684" lon="3.50298">
        <ele>79</ele>
        <time>2019-12-24T15:43:54+01:00</time>
      </trkpt>
      <trkpt lat="47.95786" lon="3.5036">
        <ele>79</ele>
        <time>2019-12-24T15:43:59+01:00</time>
      </trkpt>
      <trkpt lat="47.95845" lon="3.50395">
        <ele>80</ele>
        <time>2019-12-24T15:44:04+01:00</time>
      </trkpt>
      <trkpt lat="47.95887" lon="3.50421">
        <ele>80</ele>
        <time>2019-12-24T15:44:09+01:00</time>
      </trkpt>
      <trkpt lat="47.95909" lon="3.50453">
        <ele>81</ele>
        <time>2019-12-24T15:44:14+01:00</time>
      </trkpt>
      <trkpt lat="47.95927" lon="3.50489">
        <ele>82</ele>
        <time>2019-12-24T15:44:19+01:00</time>
      </trkpt>
      <trkpt lat="47.95963" lon="3.50497">
        <ele>83</ele>
        <time>2019-12-24T15:44:24+01:00</time>
      </trkpt>
      <trkpt lat="47.96045" lon="3.50482">
        <ele>82</ele>
        <time>2019-12-24T15:44:29+01:00</time>
      </trkpt>
      <trkpt lat="47.96133" lon="3.50462">
        <ele>81</ele>
        <time>2019-12-24T15:44:34+01:00</time>
      </trkpt>
      <trkpt lat="47.96137" lon="3.50534">
        <ele>81</ele>
        <time>2019-12-24T15:44:39+01:00</time>
      </trkpt>
      <trkpt lat="47.96148" lon="3.50579">
        <ele>81</ele>
        <time>2019-12-24T15:44:44+01:00</time>
      </trkpt>
      <trkpt lat="47.96161" lon="3.50764">
        <ele>82</ele>
        <time>2019-12-24T15:44:49+01:00</time>
      </trkpt>
      <trkpt lat="47.96178" lon="3.50956">
        <ele>82</ele>
        <time>2019-12-24T15:44:54+01:00</time>
      </trkpt>
      <trkpt lat="47.96161" lon="3.50973">
        <ele>82</ele>
        <time>2019-12-24T15:44:59+01:00</time>
      </trkpt>
      <trkpt lat="47.9616" lon="3.50996">
        <ele>83</ele>
        <time>2019-12-24T15:45:04+01:00</time>
      </trkpt>
      <trkpt lat="47.96176" lon="3.51162">
        <ele>83</ele>
        <time>2019-12-24T15:45:09+01:00</time>
      </trkpt>
      <trkpt lat="47.96186" lon="3.51326">
        <ele>84</ele>
        <time>2019-12-24T15:45:14+01:00</time>
      </trkpt>
      <trkpt lat="47.96218" lon="3.51323">
        <ele>83</ele>
        <time>2019-12-24T15:45:19+01:00</time>
      </trkpt>
    </trkseg>
  </trk>
</gpx>